ΕΜΥ, Εθνική Μετεωρολογική Υπηρεσία - Δελτία Καιρού, Προγνώσεις

ΑΕΡΟΝΑΥΤΙΛΙΑ

GREEK AIRPORTS CODES

TAF LGAL 191400Z 1915/1924 06015KT 9999 FEW025 SCT060 TEMPO 1915/1924 FEW020 BKN060=

EUROPEAN AIRPORTS CODES

LFPO 191430Z 06017KT 020V080 CAVOK 20/03 Q1026 NOSIG=